CheckWX is a tool to help pilots better visualize weather data.  It is not intended as a substitute for an official pre-flight weather briefing.

07:45:14 UTC

SCIE TAF
Carriel Sur Airport
Concepcion, Chile
TAF SCIE 200435Z 2006/2106 16004KT CAVOK TX15/2018Z TN08/2011Z TEMPO 2006/2012 VRB02KT 5000 HZ SCT010 BKN100 BECMG 2014/2016 14005KT BECMG 2018/2020 32007KT BECMG 2101/2103 03007KT SCT025 BKN080 BKN200

Aug-20@
06:00 UTC

Aug-20 @ 06:00 UTC

Aug-20@
14:00 UTC

Aug-20 @ 14:00 UTC

TAF SCIE 200435Z 2006/2106 16004KT CAVOK TX15/2018Z TN08/2011Z
Wind
  • 160° at 4 KTS
Cloud Levels
  • No significant clouds

Aug-20@
06:00 UTC

Aug-20 @ 06:00 UTC

Aug-20@
12:00 UTC

Aug-20 @ 12:00 UTC

TEMPO 2006/2012 VRB02KT 5000 HZ SCT010 BKN100

Temporary

Temporary Changes expected for less than half the time period

Wind
  • Variable at 2 KTS
Conditions
Haze
Cloud Levels
  • Scattered at 1,000' AGL
  • Broken at 10,000' AGL

Aug-20@
14:00 UTC

Aug-20 @ 14:00 UTC

Aug-20@
18:00 UTC

Aug-20 @ 18:00 UTC

BECMG 2014/2016 14005KT

Becoming

Becoming Conditions expected by Tue, Aug 20, 2019 @ 16:00 UTC

Wind
  • 140° at 5 KTS
Cloud Levels
  • No significant clouds

Aug-20@
18:00 UTC

Aug-20 @ 18:00 UTC

Aug-21@
01:00 UTC

Aug-21 @ 01:00 UTC

BECMG 2018/2020 32007KT

Becoming

Becoming Conditions expected by Tue, Aug 20, 2019 @ 20:00 UTC

Wind
  • 320° at 7 KTS
Cloud Levels
  • No significant clouds

Aug-21@
01:00 UTC

Aug-21 @ 01:00 UTC

Aug-21@
06:00 UTC

Aug-21 @ 06:00 UTC

BECMG 2101/2103 03007KT SCT025 BKN080 BKN200

Becoming

Becoming Conditions expected by Wed, Aug 21, 2019 @ 03:00 UTC

Wind
  • 030° at 7 KTS
Cloud Levels
  • Scattered at 2,500' AGL
  • Broken at 8,000' AGL
  • Broken at 20,000' AGL